Aviation Digital Data Service (ADDS)

Output produced by METARs form (0143 UTC 23 November 2017)
found at http://www.aviationweather.gov/adds/metars/
 
LKCV 230100Z 14004KT CAVOK 03/02 Q1012 NOSIG RMK BLU+ BLU
TAF LKCV 222300Z 2300/2400 14004KT CAVOK 
     TEMPO 2300/2309 7000 
     PROB30 2303/2307 2000 BR BKN010 
     BECMG 2320/2322 BKN030
       
LKCV 230100Z 14004KT CAVOK 03/02 Q1012 NOSIG RMK BLU+ BLU
TAF LKCV 222300Z 2300/2400 14004KT CAVOK 
     TEMPO 2300/2309 7000 
     PROB30 2303/2307 2000 BR BKN010 
     BECMG 2320/2322 BKN030
       
LKKB 230100Z 00000KT CAVOK 03/02 Q1012
TAF LKKB 222300Z 2300/2400 VRB02KT CAVOK 
     TEMPO 2302/2307 4000 BR SCT010 
     TEMPO 2306/2310 9999 SCT025 
     BECMG 2310/2312 21010KT 
     BECMG 2322/2400 BKN020
       
LKKV 230100Z 08002KT 1200 R29/1500U BR NSC M00/M00 Q1010
TAF LKKV 222300Z 2300/2406 11004KT CAVOK 
     TEMPO 2300/2306 4000 BR NSC 
     PROB30 
     TEMPO 2300/2306 2000 MIFG SCT002 
     TEMPO 2312/2316 20006KT 
     TEMPO 2403/2406 4000 BR NSC 
     PROB30 
     TEMPO 2403/2406 2000 MIFG
       
LKLN 230142Z AUTO 35002KT 4500 BR FEW001 BKN003 M01/M01 Q1012
LKMT 230130Z 22007KT 8000 NSC 04/03 Q1013 NOSIG
TAF LKMT 222300Z 2300/2406 22006KT 7000 NSC 
     TEMPO 2300/2306 4000 BR 
     PROB30 
     TEMPO 2300/2306 2000 MIFG 
     BECMG 2306/2309 23012KT 
     TEMPO 2309/2322 23014G24KT 
     BECMG 2400/2402 4000 BR SCT006 
     TEMPO 2402/2406 2000 BR BKN006 
     PROB30 
     TEMPO 2402/2406 1200 BR BKN003
       
LKNA 230100Z VRB02KT 8000 NSC 04/03 Q1013 RMK BLU BLU
TAF LKNA 222300Z 2300/2400 VRB02KT CAVOK 
     BECMG 2303/2305 4000 BR 
     BECMG 2307/2309 8000 SCT015 
     BECMG 2309/2311 9999 SCT015
       
LKPD 230100Z 07003KT 5000 BR NSC 00/00 Q1013 RMK WHT
TAF COR LKPD 222300Z 2300/2400 VRB02KT 3500 MIFG BR NSC 
     PROB40 2300/2309 0500 FG VV001 
     BECMG 2308/2310 10005KT 7000 NSW 
     BECMG 2310/2312 CAVOK 
     PROB30 2320/2400 1500 BR BKN003
       
LKPR 230130Z 15007KT CAVOK 04/01 Q1011 NOSIG
TAF LKPR 222300Z 2300/2406 15006KT CAVOK 
     BECMG 2310/2312 21012KT 
     TEMPO 2312/2322 22014G24KT
       
LKTB 230130Z 31004KT CAVOK 01/01 Q1014 NOSIG
TAF LKTB 222300Z 2300/2406 VRB02KT CAVOK 
     TEMPO 2303/2307 4000 BR NSC 
     PROB30 
     TEMPO 2304/2307 2000 BR 
     TEMPO 2308/2316 12008KT 
     BECMG 2310/2312 4000 BR OVC008 
     TEMPO 2314/2406 2000 BR OVC004 
     PROB30 
     TEMPO 2318/2406 1200 BR OVC002
       
LKKV 230100Z 08002KT 1200 R29/1500U BR NSC M00/M00 Q1010
TAF LKKV 222300Z 2300/2406 11004KT CAVOK 
     TEMPO 2300/2306 4000 BR NSC 
     PROB30 
     TEMPO 2300/2306 2000 MIFG SCT002 
     TEMPO 2312/2316 20006KT 
     TEMPO 2403/2406 4000 BR NSC 
     PROB30 
     TEMPO 2403/2406 2000 MIFG
       
LKKB 230100Z 00000KT CAVOK 03/02 Q1012
TAF LKKB 222300Z 2300/2400 VRB02KT CAVOK 
     TEMPO 2302/2307 4000 BR SCT010 
     TEMPO 2306/2310 9999 SCT025 
     BECMG 2310/2312 21010KT 
     BECMG 2322/2400 BKN020
       
LKLN 230142Z AUTO 35002KT 4500 BR FEW001 BKN003 M01/M01 Q1012
LKMT 230130Z 22007KT 8000 NSC 04/03 Q1013 NOSIG
TAF LKMT 222300Z 2300/2406 22006KT 7000 NSC 
     TEMPO 2300/2306 4000 BR 
     PROB30 
     TEMPO 2300/2306 2000 MIFG 
     BECMG 2306/2309 23012KT 
     TEMPO 2309/2322 23014G24KT 
     BECMG 2400/2402 4000 BR SCT006 
     TEMPO 2402/2406 2000 BR BKN006 
     PROB30 
     TEMPO 2402/2406 1200 BR BKN003
       
LKNA 230100Z VRB02KT 8000 NSC 04/03 Q1013 RMK BLU BLU
TAF LKNA 222300Z 2300/2400 VRB02KT CAVOK 
     BECMG 2303/2305 4000 BR 
     BECMG 2307/2309 8000 SCT015 
     BECMG 2309/2311 9999 SCT015
       
LKPD 230100Z 07003KT 5000 BR NSC 00/00 Q1013 RMK WHT
TAF COR LKPD 222300Z 2300/2400 VRB02KT 3500 MIFG BR NSC 
     PROB40 2300/2309 0500 FG VV001 
     BECMG 2308/2310 10005KT 7000 NSW 
     BECMG 2310/2312 CAVOK 
     PROB30 2320/2400 1500 BR BKN003
       
LKPR 230130Z 15007KT CAVOK 04/01 Q1011 NOSIG
TAF LKPR 222300Z 2300/2406 15006KT CAVOK 
     BECMG 2310/2312 21012KT 
     TEMPO 2312/2322 22014G24KT
       
LKTB 230130Z 31004KT CAVOK 01/01 Q1014 NOSIG
TAF LKTB 222300Z 2300/2406 VRB02KT CAVOK 
     TEMPO 2303/2307 4000 BR NSC 
     PROB30 
     TEMPO 2304/2307 2000 BR 
     TEMPO 2308/2316 12008KT 
     BECMG 2310/2312 4000 BR OVC008 
     TEMPO 2314/2406 2000 BR OVC004 
     PROB30 
     TEMPO 2318/2406 1200 BR OVC002